sensor_id;sensor_type;location;lat;lon;timestamp;P1;durP1;ratioP1;P2;durP2;ratioP2
18174;SDS011;9212;50.894;16.714;2023-02-20T00:00:08;7.00;;;3.03;;
18174;SDS011;9212;50.894;16.714;2023-02-20T00:02:42;3.80;;;2.07;;
18174;SDS011;9212;50.894;16.714;2023-02-20T00:05:11;4.07;;;2.37;;
18174;SDS011;9212;50.894;16.714;2023-02-20T00:07:38;2.90;;;2.60;;
18174;SDS011;9212;50.894;16.714;2023-02-20T00:10:05;3.17;;;2.23;;
18174;SDS011;9212;50.894;16.714;2023-02-20T00:12:33;7.57;;;2.30;;
18174;SDS011;9212;50.894;16.714;2023-02-20T00:15:02;6.33;;;2.23;;
18174;SDS011;9212;50.894;16.714;2023-02-20T00:17:29;2.80;;;2.20;;
18174;SDS011;9212;50.894;16.714;2023-02-20T00:19:56;5.47;;;2.13;;
18174;SDS011;9212;50.894;16.714;2023-02-20T00:22:24;2.80;;;2.27;;
18174;SDS011;9212;50.894;16.714;2023-02-20T00:24:51;5.57;;;2.27;;
18174;SDS011;9212;50.894;16.714;2023-02-20T00:27:19;3.33;;;2.37;;
18174;SDS011;9212;50.894;16.714;2023-02-20T00:29:46;2.93;;;1.90;;
18174;SDS011;9212;50.894;16.714;2023-02-20T00:32:15;5.00;;;2.40;;
18174;SDS011;9212;50.894;16.714;2023-02-20T00:34:43;3.53;;;2.10;;
18174;SDS011;9212;50.894;16.714;2023-02-20T00:37:10;3.53;;;2.17;;
18174;SDS011;9212;50.894;16.714;2023-02-20T00:39:37;3.43;;;2.33;;
18174;SDS011;9212;50.894;16.714;2023-02-20T00:42:04;2.27;;;2.07;;
18174;SDS011;9212;50.894;16.714;2023-02-20T00:44:32;3.67;;;2.20;;
18174;SDS011;9212;50.894;16.714;2023-02-20T00:46:59;2.33;;;2.13;;
18174;SDS011;9212;50.894;16.714;2023-02-20T00:49:27;2.33;;;2.10;;
18174;SDS011;9212;50.894;16.714;2023-02-20T00:51:54;2.40;;;2.20;;
18174;SDS011;9212;50.894;16.714;2023-02-20T00:54:22;2.40;;;2.20;;
18174;SDS011;9212;50.894;16.714;2023-02-20T00:56:49;6.47;;;1.83;;
18174;SDS011;9212;50.894;16.714;2023-02-20T00:59:16;1.77;;;1.67;;
18174;SDS011;9212;50.894;16.714;2023-02-20T01:01:44;2.37;;;1.67;;
18174;SDS011;9212;50.894;16.714;2023-02-20T01:04:11;4.53;;;1.90;;
18174;SDS011;9212;50.894;16.714;2023-02-20T01:06:39;3.33;;;1.77;;
18174;SDS011;9212;50.894;16.714;2023-02-20T01:09:06;2.50;;;2.20;;
18174;SDS011;9212;50.894;16.714;2023-02-20T01:11:33;3.80;;;1.87;;
18174;SDS011;9212;50.894;16.714;2023-02-20T01:14:00;3.73;;;1.90;;
18174;SDS011;9212;50.894;16.714;2023-02-20T01:16:28;1.80;;;1.63;;
18174;SDS011;9212;50.894;16.714;2023-02-20T01:18:55;3.30;;;2.20;;
18174;SDS011;9212;50.894;16.714;2023-02-20T01:21:22;2.37;;;2.17;;
18174;SDS011;9212;50.894;16.714;2023-02-20T01:23:51;8.00;;;1.90;;
18174;SDS011;9212;50.894;16.714;2023-02-20T01:26:18;2.80;;;1.87;;
18174;SDS011;9212;50.894;16.714;2023-02-20T01:28:45;6.83;;;1.73;;
18174;SDS011;9212;50.894;16.714;2023-02-20T01:31:13;3.03;;;1.63;;
18174;SDS011;9212;50.894;16.714;2023-02-20T01:33:41;4.17;;;1.80;;
18174;SDS011;9212;50.894;16.714;2023-02-20T01:36:09;6.23;;;2.10;;
18174;SDS011;9212;50.894;16.714;2023-02-20T01:38:38;3.73;;;1.90;;
18174;SDS011;9212;50.894;16.714;2023-02-20T01:41:08;1.73;;;1.30;;
18174;SDS011;9212;50.894;16.714;2023-02-20T01:43:35;3.57;;;1.90;;
18174;SDS011;9212;50.894;16.714;2023-02-20T01:49:08;4.57;;;2.00;;
18174;SDS011;9212;50.894;16.714;2023-02-20T01:51:40;3.37;;;1.90;;
18174;SDS011;9212;50.894;16.714;2023-02-20T01:54:10;5.30;;;1.83;;
18174;SDS011;9212;50.894;16.714;2023-02-20T01:56:41;1.63;;;1.53;;
18174;SDS011;9212;50.894;16.714;2023-02-20T01:59:09;2.57;;;1.83;;
18174;SDS011;9212;50.894;16.714;2023-02-20T02:01:37;4.93;;;2.10;;
18174;SDS011;9212;50.894;16.714;2023-02-20T02:04:06;2.83;;;2.30;;
18174;SDS011;9212;50.894;16.714;2023-02-20T02:06:37;1.93;;;1.80;;
18174;SDS011;9212;50.894;16.714;2023-02-20T02:09:11;4.93;;;1.70;;
18174;SDS011;9212;50.894;16.714;2023-02-20T02:11:44;3.20;;;1.40;;
18174;SDS011;9212;50.894;16.714;2023-02-20T02:14:14;2.60;;;1.90;;
18174;SDS011;9212;50.894;16.714;2023-02-20T02:16:43;8.00;;;2.10;;
18174;SDS011;9212;50.894;16.714;2023-02-20T02:19:22;5.87;;;1.60;;
18174;SDS011;9212;50.894;16.714;2023-02-20T02:25:12;9.27;;;2.10;;
18174;SDS011;9212;50.894;16.714;2023-02-20T02:27:57;1.87;;;1.60;;
18174;SDS011;9212;50.894;16.714;2023-02-20T02:36:50;2.03;;;1.53;;
18174;SDS011;9212;50.894;16.714;2023-02-20T02:39:21;3.93;;;1.80;;
18174;SDS011;9212;50.894;16.714;2023-02-20T02:41:55;2.00;;;1.80;;
18174;SDS011;9212;50.894;16.714;2023-02-20T02:44:32;2.00;;;1.90;;
18174;SDS011;9212;50.894;16.714;2023-02-20T02:47:06;1.30;;;1.30;;
18174;SDS011;9212;50.894;16.714;2023-02-20T02:49:40;3.83;;;1.73;;
18174;SDS011;9212;50.894;16.714;2023-02-20T02:52:15;1.33;;;1.20;;
18174;SDS011;9212;50.894;16.714;2023-02-20T02:55:03;2.03;;;1.73;;
18174;SDS011;9212;50.894;16.714;2023-02-20T02:57:31;2.30;;;1.77;;
18174;SDS011;9212;50.894;16.714;2023-02-20T02:59:59;2.00;;;1.90;;
18174;SDS011;9212;50.894;16.714;2023-02-20T03:02:28;1.83;;;1.73;;
18174;SDS011;9212;50.894;16.714;2023-02-20T03:04:59;5.17;;;2.23;;
18174;SDS011;9212;50.894;16.714;2023-02-20T03:07:31;4.23;;;1.80;;
18174;SDS011;9212;50.894;16.714;2023-02-20T03:10:02;1.67;;;1.57;;
18174;SDS011;9212;50.894;16.714;2023-02-20T03:12:32;4.80;;;2.17;;
18174;SDS011;9212;50.894;16.714;2023-02-20T03:15:03;1.97;;;1.87;;
18174;SDS011;9212;50.894;16.714;2023-02-20T03:17:54;2.63;;;2.40;;
18174;SDS011;9212;50.894;16.714;2023-02-20T03:20:24;2.23;;;2.00;;
18174;SDS011;9212;50.894;16.714;2023-02-20T03:22:54;10.60;;;2.63;;
18174;SDS011;9212;50.894;16.714;2023-02-20T03:25:24;4.07;;;2.07;;
18174;SDS011;9212;50.894;16.714;2023-02-20T03:27:54;5.37;;;3.07;;
18174;SDS011;9212;50.894;16.714;2023-02-20T03:30:26;5.27;;;2.90;;
18174;SDS011;9212;50.894;16.714;2023-02-20T03:32:56;2.37;;;2.17;;
18174;SDS011;9212;50.894;16.714;2023-02-20T03:35:47;3.57;;;1.93;;
18174;SDS011;9212;50.894;16.714;2023-02-20T03:38:35;6.63;;;2.13;;
18174;SDS011;9212;50.894;16.714;2023-02-20T03:41:23;2.20;;;2.00;;
18174;SDS011;9212;50.894;16.714;2023-02-20T03:44:10;2.67;;;2.23;;
18174;SDS011;9212;50.894;16.714;2023-02-20T03:46:40;2.70;;;2.27;;
18174;SDS011;9212;50.894;16.714;2023-02-20T03:49:10;7.00;;;2.20;;
18174;SDS011;9212;50.894;16.714;2023-02-20T03:51:40;3.27;;;1.97;;
18174;SDS011;9212;50.894;16.714;2023-02-20T03:54:10;2.57;;;2.10;;
18174;SDS011;9212;50.894;16.714;2023-02-20T03:56:37;3.47;;;2.17;;
18174;SDS011;9212;50.894;16.714;2023-02-20T03:59:08;2.27;;;2.07;;
18174;SDS011;9212;50.894;16.714;2023-02-20T04:01:39;5.47;;;2.07;;
18174;SDS011;9212;50.894;16.714;2023-02-20T04:04:09;2.33;;;2.10;;
18174;SDS011;9212;50.894;16.714;2023-02-20T04:06:39;7.27;;;2.27;;
18174;SDS011;9212;50.894;16.714;2023-02-20T04:09:10;3.23;;;2.10;;
18174;SDS011;9212;50.894;16.714;2023-02-20T04:11:42;5.03;;;2.80;;
18174;SDS011;9212;50.894;16.714;2023-02-20T04:14:13;3.40;;;1.87;;
18174;SDS011;9212;50.894;16.714;2023-02-20T04:16:44;2.33;;;2.17;;
18174;SDS011;9212;50.894;16.714;2023-02-20T04:19:14;2.77;;;2.10;;
18174;SDS011;9212;50.894;16.714;2023-02-20T04:21:42;2.43;;;1.70;;
18174;SDS011;9212;50.894;16.714;2023-02-20T04:24:15;3.53;;;1.83;;
18174;SDS011;9212;50.894;16.714;2023-02-20T04:26:46;3.17;;;2.40;;
18174;SDS011;9212;50.894;16.714;2023-02-20T04:29:14;2.83;;;2.40;;
18174;SDS011;9212;50.894;16.714;2023-02-20T04:31:41;5.03;;;2.43;;
18174;SDS011;9212;50.894;16.714;2023-02-20T04:34:08;4.53;;;2.60;;
18174;SDS011;9212;50.894;16.714;2023-02-20T04:36:35;4.00;;;2.57;;
18174;SDS011;9212;50.894;16.714;2023-02-20T04:39:03;3.80;;;2.30;;
18174;SDS011;9212;50.894;16.714;2023-02-20T04:41:31;7.00;;;2.03;;
18174;SDS011;9212;50.894;16.714;2023-02-20T04:43:59;2.80;;;2.37;;
18174;SDS011;9212;50.894;16.714;2023-02-20T04:46:44;5.27;;;2.23;;
18174;SDS011;9212;50.894;16.714;2023-02-20T04:49:11;4.00;;;2.27;;
18174;SDS011;9212;50.894;16.714;2023-02-20T04:51:38;3.30;;;2.23;;
18174;SDS011;9212;50.894;16.714;2023-02-20T04:54:05;2.83;;;2.17;;
18174;SDS011;9212;50.894;16.714;2023-02-20T04:56:34;2.40;;;2.20;;
18174;SDS011;9212;50.894;16.714;2023-02-20T04:59:01;3.00;;;2.50;;
18174;SDS011;9212;50.894;16.714;2023-02-20T05:01:28;4.07;;;2.77;;
18174;SDS011;9212;50.894;16.714;2023-02-20T05:03:56;2.43;;;2.07;;
18174;SDS011;9212;50.894;16.714;2023-02-20T05:06:23;7.00;;;2.80;;
18174;SDS011;9212;50.894;16.714;2023-02-20T05:08:50;5.20;;;2.50;;
18174;SDS011;9212;50.894;16.714;2023-02-20T05:11:18;4.47;;;2.67;;
18174;SDS011;9212;50.894;16.714;2023-02-20T05:13:47;2.40;;;2.20;;
18174;SDS011;9212;50.894;16.714;2023-02-20T05:16:14;2.80;;;2.20;;
18174;SDS011;9212;50.894;16.714;2023-02-20T05:18:41;6.10;;;2.93;;
18174;SDS011;9212;50.894;16.714;2023-02-20T05:21:11;2.77;;;2.33;;
18174;SDS011;9212;50.894;16.714;2023-02-20T05:23:56;4.13;;;2.60;;
18174;SDS011;9212;50.894;16.714;2023-02-20T05:26:24;3.53;;;2.53;;
18174;SDS011;9212;50.894;16.714;2023-02-20T05:28:53;2.40;;;2.20;;
18174;SDS011;9212;50.894;16.714;2023-02-20T05:31:20;2.53;;;2.33;;
18174;SDS011;9212;50.894;16.714;2023-02-20T05:33:47;3.93;;;2.53;;
18174;SDS011;9212;50.894;16.714;2023-02-20T05:36:15;2.80;;;2.53;;
18174;SDS011;9212;50.894;16.714;2023-02-20T05:38:42;2.60;;;2.40;;
18174;SDS011;9212;50.894;16.714;2023-02-20T05:41:12;3.43;;;2.70;;
18174;SDS011;9212;50.894;16.714;2023-02-20T05:43:39;3.77;;;2.37;;
18174;SDS011;9212;50.894;16.714;2023-02-20T05:46:08;5.13;;;2.50;;
18174;SDS011;9212;50.894;16.714;2023-02-20T05:48:35;5.90;;;3.60;;
18174;SDS011;9212;50.894;16.714;2023-02-20T05:51:02;8.93;;;4.13;;
18174;SDS011;9212;50.894;16.714;2023-02-20T05:53:30;7.63;;;4.37;;
18174;SDS011;9212;50.894;16.714;2023-02-20T05:55:57;6.70;;;3.97;;
18174;SDS011;9212;50.894;16.714;2023-02-20T05:58:25;5.87;;;3.47;;
18174;SDS011;9212;50.894;16.714;2023-02-20T06:00:52;7.50;;;2.83;;
18174;SDS011;9212;50.894;16.714;2023-02-20T06:03:21;3.30;;;2.70;;
18174;SDS011;9212;50.894;16.714;2023-02-20T06:05:48;3.33;;;2.67;;
18174;SDS011;9212;50.894;16.714;2023-02-20T06:08:15;4.13;;;2.30;;
18174;SDS011;9212;50.894;16.714;2023-02-20T06:10:42;4.43;;;2.73;;
18174;SDS011;9212;50.894;16.714;2023-02-20T06:13:09;4.53;;;2.53;;
18174;SDS011;9212;50.894;16.714;2023-02-20T06:15:37;2.90;;;2.37;;
18174;SDS011;9212;50.894;16.714;2023-02-20T06:18:04;2.90;;;2.60;;
18174;SDS011;9212;50.894;16.714;2023-02-20T06:20:32;2.77;;;2.57;;
18174;SDS011;9212;50.894;16.714;2023-02-20T06:22:59;4.70;;;2.80;;
18174;SDS011;9212;50.894;16.714;2023-02-20T06:25:26;3.33;;;3.03;;
18174;SDS011;9212;50.894;16.714;2023-02-20T06:27:54;4.53;;;2.57;;
18174;SDS011;9212;50.894;16.714;2023-02-20T06:30:21;3.43;;;3.07;;
18174;SDS011;9212;50.894;16.714;2023-02-20T06:32:49;2.73;;;2.50;;
18174;SDS011;9212;50.894;16.714;2023-02-20T06:35:16;5.53;;;3.00;;
18174;SDS011;9212;50.894;16.714;2023-02-20T06:37:44;2.70;;;2.50;;
18174;SDS011;9212;50.894;16.714;2023-02-20T06:40:12;2.70;;;2.50;;
18174;SDS011;9212;50.894;16.714;2023-02-20T06:42:39;4.40;;;2.23;;
18174;SDS011;9212;50.894;16.714;2023-02-20T06:45:07;5.00;;;2.60;;
18174;SDS011;9212;50.894;16.714;2023-02-20T06:47:35;2.73;;;2.37;;
18174;SDS011;9212;50.894;16.714;2023-02-20T06:50:02;3.50;;;2.60;;
18174;SDS011;9212;50.894;16.714;2023-02-20T06:52:29;6.90;;;2.70;;
18174;SDS011;9212;50.894;16.714;2023-02-20T06:54:58;4.53;;;2.93;;
18174;SDS011;9212;50.894;16.714;2023-02-20T06:57:25;6.13;;;3.87;;
18174;SDS011;9212;50.894;16.714;2023-02-20T06:59:53;4.93;;;3.60;;
18174;SDS011;9212;50.894;16.714;2023-02-20T07:02:20;8.23;;;4.00;;
18174;SDS011;9212;50.894;16.714;2023-02-20T07:04:47;5.53;;;3.97;;
18174;SDS011;9212;50.894;16.714;2023-02-20T07:07:15;5.13;;;3.43;;
18174;SDS011;9212;50.894;16.714;2023-02-20T07:09:42;4.40;;;3.10;;
18174;SDS011;9212;50.894;16.714;2023-02-20T07:12:11;6.60;;;3.40;;
18174;SDS011;9212;50.894;16.714;2023-02-20T07:14:38;5.00;;;4.00;;
18174;SDS011;9212;50.894;16.714;2023-02-20T07:17:05;4.17;;;3.13;;
18174;SDS011;9212;50.894;16.714;2023-02-20T07:19:32;6.10;;;3.70;;
18174;SDS011;9212;50.894;16.714;2023-02-20T07:21:59;8.87;;;4.93;;
18174;SDS011;9212;50.894;16.714;2023-02-20T07:24:27;5.77;;;4.00;;
18174;SDS011;9212;50.894;16.714;2023-02-20T07:26:54;5.47;;;3.90;;
18174;SDS011;9212;50.894;16.714;2023-02-20T07:29:22;4.50;;;3.67;;
18174;SDS011;9212;50.894;16.714;2023-02-20T07:31:49;5.90;;;3.90;;
18174;SDS011;9212;50.894;16.714;2023-02-20T07:34:16;5.77;;;3.60;;
18174;SDS011;9212;50.894;16.714;2023-02-20T07:36:43;6.83;;;4.17;;
18174;SDS011;9212;50.894;16.714;2023-02-20T07:39:13;6.40;;;4.30;;
18174;SDS011;9212;50.894;16.714;2023-02-20T07:41:40;12.87;;;6.10;;
18174;SDS011;9212;50.894;16.714;2023-02-20T07:44:07;8.90;;;5.77;;
18174;SDS011;9212;50.894;16.714;2023-02-20T07:46:38;7.93;;;4.00;;
18174;SDS011;9212;50.894;16.714;2023-02-20T07:49:06;5.30;;;4.30;;
18174;SDS011;9212;50.894;16.714;2023-02-20T07:51:33;5.30;;;3.73;;
18174;SDS011;9212;50.894;16.714;2023-02-20T07:54:02;7.67;;;3.43;;
18174;SDS011;9212;50.894;16.714;2023-02-20T07:56:29;8.57;;;4.30;;
18174;SDS011;9212;50.894;16.714;2023-02-20T07:58:57;4.00;;;3.47;;
18174;SDS011;9212;50.894;16.714;2023-02-20T08:01:24;4.60;;;3.50;;
18174;SDS011;9212;50.894;16.714;2023-02-20T08:03:52;4.80;;;3.10;;
18174;SDS011;9212;50.894;16.714;2023-02-20T08:06:19;5.67;;;3.47;;
18174;SDS011;9212;50.894;16.714;2023-02-20T08:08:47;5.00;;;3.20;;
18174;SDS011;9212;50.894;16.714;2023-02-20T08:11:16;5.10;;;2.90;;
18174;SDS011;9212;50.894;16.714;2023-02-20T08:13:43;3.93;;;3.20;;
18174;SDS011;9212;50.894;16.714;2023-02-20T08:16:11;7.63;;;3.47;;
18174;SDS011;9212;50.894;16.714;2023-02-20T08:18:38;5.40;;;3.57;;
18174;SDS011;9212;50.894;16.714;2023-02-20T08:21:06;7.57;;;4.20;;
18174;SDS011;9212;50.894;16.714;2023-02-20T08:23:33;7.20;;;4.23;;
18174;SDS011;9212;50.894;16.714;2023-02-20T08:26:01;5.73;;;3.90;;
18174;SDS011;9212;50.894;16.714;2023-02-20T08:28:29;4.73;;;3.30;;
18174;SDS011;9212;50.894;16.714;2023-02-20T08:30:57;5.77;;;4.10;;
18174;SDS011;9212;50.894;16.714;2023-02-20T08:33:24;5.10;;;3.00;;
18174;SDS011;9212;50.894;16.714;2023-02-20T08:35:51;4.87;;;2.77;;
18174;SDS011;9212;50.894;16.714;2023-02-20T08:38:23;4.63;;;3.47;;
18174;SDS011;9212;50.894;16.714;2023-02-20T08:40:52;3.50;;;3.20;;
18174;SDS011;9212;50.894;16.714;2023-02-20T08:43:19;5.93;;;3.40;;
18174;SDS011;9212;50.894;16.714;2023-02-20T08:45:47;5.53;;;3.73;;
18174;SDS011;9212;50.894;16.714;2023-02-20T08:48:14;9.73;;;4.13;;
18174;SDS011;9212;50.894;16.714;2023-02-20T08:50:41;9.23;;;5.17;;
18174;SDS011;9212;50.894;16.714;2023-02-20T08:53:09;7.80;;;4.60;;
18174;SDS011;9212;50.894;16.714;2023-02-20T08:55:38;6.00;;;4.37;;
18174;SDS011;9212;50.894;16.714;2023-02-20T08:58:05;6.50;;;4.33;;
18174;SDS011;9212;50.894;16.714;2023-02-20T09:00:32;15.93;;;7.57;;
18174;SDS011;9212;50.894;16.714;2023-02-20T09:02:59;18.17;;;7.80;;
18174;SDS011;9212;50.894;16.714;2023-02-20T09:05:28;10.83;;;6.23;;
18174;SDS011;9212;50.894;16.714;2023-02-20T09:07:56;10.40;;;6.23;;
18174;SDS011;9212;50.894;16.714;2023-02-20T09:10:23;15.90;;;7.27;;
18174;SDS011;9212;50.894;16.714;2023-02-20T09:12:51;11.40;;;5.83;;
18174;SDS011;9212;50.894;16.714;2023-02-20T09:15:19;11.03;;;4.97;;
18174;SDS011;9212;50.894;16.714;2023-02-20T09:17:47;7.30;;;4.37;;
18174;SDS011;9212;50.894;16.714;2023-02-20T09:20:16;4.70;;;4.00;;
18174;SDS011;9212;50.894;16.714;2023-02-20T09:22:45;8.63;;;3.10;;
18174;SDS011;9212;50.894;16.714;2023-02-20T09:25:12;6.60;;;3.80;;
18174;SDS011;9212;50.894;16.714;2023-02-20T09:27:40;3.67;;;3.20;;
18174;SDS011;9212;50.894;16.714;2023-02-20T09:30:09;5.00;;;3.60;;
18174;SDS011;9212;50.894;16.714;2023-02-20T09:32:41;7.57;;;3.23;;
18174;SDS011;9212;50.894;16.714;2023-02-20T09:35:09;7.40;;;3.53;;
18174;SDS011;9212;50.894;16.714;2023-02-20T09:37:40;3.27;;;2.60;;
18174;SDS011;9212;50.894;16.714;2023-02-20T09:40:08;2.73;;;2.53;;
18174;SDS011;9212;50.894;16.714;2023-02-20T09:42:38;3.20;;;2.20;;
18174;SDS011;9212;50.894;16.714;2023-02-20T09:45:13;3.47;;;2.33;;
18174;SDS011;9212;50.894;16.714;2023-02-20T09:47:49;3.20;;;2.20;;
18174;SDS011;9212;50.894;16.714;2023-02-20T09:50:27;2.80;;;2.20;;
18174;SDS011;9212;50.894;16.714;2023-02-20T09:53:01;4.07;;;2.60;;
18174;SDS011;9212;50.894;16.714;2023-02-20T09:55:33;7.20;;;2.97;;
18174;SDS011;9212;50.894;16.714;2023-02-20T09:58:04;5.33;;;3.07;;
18174;SDS011;9212;50.894;16.714;2023-02-20T10:00:34;8.07;;;3.40;;
18174;SDS011;9212;50.894;16.714;2023-02-20T10:03:09;5.43;;;2.90;;
18174;SDS011;9212;50.894;16.714;2023-02-20T10:05:44;2.70;;;2.37;;
18174;SDS011;9212;50.894;16.714;2023-02-20T10:08:12;3.57;;;2.63;;
18174;SDS011;9212;50.894;16.714;2023-02-20T10:10:43;5.60;;;3.53;;
18174;SDS011;9212;50.894;16.714;2023-02-20T10:13:15;3.20;;;2.43;;
18174;SDS011;9212;50.894;16.714;2023-02-20T10:15:58;3.27;;;2.97;;
18174;SDS011;9212;50.894;16.714;2023-02-20T10:18:33;2.57;;;2.23;;
18174;SDS011;9212;50.894;16.714;2023-02-20T10:21:11;4.27;;;3.20;;
18174;SDS011;9212;50.894;16.714;2023-02-20T10:23:44;7.10;;;2.87;;
18174;SDS011;9212;50.894;16.714;2023-02-20T10:26:14;4.73;;;2.57;;
18174;SDS011;9212;50.894;16.714;2023-02-20T10:28:47;3.30;;;2.70;;
18174;SDS011;9212;50.894;16.714;2023-02-20T10:31:24;4.53;;;3.00;;
18174;SDS011;9212;50.894;16.714;2023-02-20T10:33:59;3.60;;;3.17;;
18174;SDS011;9212;50.894;16.714;2023-02-20T10:36:33;4.70;;;3.60;;
18174;SDS011;9212;50.894;16.714;2023-02-20T10:39:05;7.13;;;4.50;;
18174;SDS011;9212;50.894;16.714;2023-02-20T10:41:35;5.80;;;3.57;;
18174;SDS011;9212;50.894;16.714;2023-02-20T10:44:10;4.57;;;2.93;;
18174;SDS011;9212;50.894;16.714;2023-02-20T10:46:45;5.80;;;3.60;;
18174;SDS011;9212;50.894;16.714;2023-02-20T10:49:18;4.17;;;3.27;;
18174;SDS011;9212;50.894;16.714;2023-02-20T10:51:55;4.33;;;3.10;;
18174;SDS011;9212;50.894;16.714;2023-02-20T10:54:28;4.60;;;3.60;;
18174;SDS011;9212;50.894;16.714;2023-02-20T10:56:59;3.43;;;2.90;;
18174;SDS011;9212;50.894;16.714;2023-02-20T10:59:32;5.77;;;3.23;;
18174;SDS011;9212;50.894;16.714;2023-02-20T11:02:10;4.93;;;2.57;;
18174;SDS011;9212;50.894;16.714;2023-02-20T11:04:42;3.63;;;2.87;;
18174;SDS011;9212;50.894;16.714;2023-02-20T11:07:16;3.57;;;3.07;;
18174;SDS011;9212;50.894;16.714;2023-02-20T11:09:44;5.37;;;3.17;;
18174;SDS011;9212;50.894;16.714;2023-02-20T11:12:17;6.23;;;2.90;;
18174;SDS011;9212;50.894;16.714;2023-02-20T11:14:51;7.90;;;3.60;;
18174;SDS011;9212;50.894;16.714;2023-02-20T11:17:23;4.13;;;3.10;;
18174;SDS011;9212;50.894;16.714;2023-02-20T11:19:52;5.10;;;3.53;;
18174;SDS011;9212;50.894;16.714;2023-02-20T11:25:14;3.43;;;2.87;;
18174;SDS011;9212;50.894;16.714;2023-02-20T11:27:43;5.30;;;3.50;;
18174;SDS011;9212;50.894;16.714;2023-02-20T11:30:21;6.87;;;4.07;;
18174;SDS011;9212;50.894;16.714;2023-02-20T11:32:59;5.57;;;3.57;;
18174;SDS011;9212;50.894;16.714;2023-02-20T11:35:28;5.63;;;3.53;;
18174;SDS011;9212;50.894;16.714;2023-02-20T11:41:07;7.07;;;4.43;;
18174;SDS011;9212;50.894;16.714;2023-02-20T11:43:48;8.13;;;4.80;;
18174;SDS011;9212;50.894;16.714;2023-02-20T11:46:31;6.97;;;4.10;;
18174;SDS011;9212;50.894;16.714;2023-02-20T11:49:01;4.93;;;4.27;;
18174;SDS011;9212;50.894;16.714;2023-02-20T11:51:32;6.30;;;4.20;;
18174;SDS011;9212;50.894;16.714;2023-02-20T11:54:08;7.40;;;4.53;;
18174;SDS011;9212;50.894;16.714;2023-02-20T11:56:51;6.80;;;4.17;;
18174;SDS011;9212;50.894;16.714;2023-02-20T12:02:11;6.07;;;3.73;;
18174;SDS011;9212;50.894;16.714;2023-02-20T12:05:01;5.40;;;4.17;;
18174;SDS011;9212;50.894;16.714;2023-02-20T12:07:34;6.23;;;5.03;;
18174;SDS011;9212;50.894;16.714;2023-02-20T12:10:05;7.17;;;4.93;;
18174;SDS011;9212;50.894;16.714;2023-02-20T12:12:46;7.73;;;4.80;;
18174;SDS011;9212;50.894;16.714;2023-02-20T12:15:14;19.53;;;4.33;;
18174;SDS011;9212;50.894;16.714;2023-02-20T12:17:46;7.80;;;5.17;;
18174;SDS011;9212;50.894;16.714;2023-02-20T12:20:26;5.40;;;3.67;;
18174;SDS011;9212;50.894;16.714;2023-02-20T12:22:57;5.73;;;3.97;;
18174;SDS011;9212;50.894;16.714;2023-02-20T12:25:32;7.03;;;4.77;;
18174;SDS011;9212;50.894;16.714;2023-02-20T12:28:07;6.30;;;4.37;;
18174;SDS011;9212;50.894;16.714;2023-02-20T12:30:48;6.43;;;3.83;;
18174;SDS011;9212;50.894;16.714;2023-02-20T12:33:32;6.53;;;4.13;;
18174;SDS011;9212;50.894;16.714;2023-02-20T12:36:24;9.60;;;4.63;;
18174;SDS011;9212;50.894;16.714;2023-02-20T12:38:57;5.43;;;3.53;;
18174;SDS011;9212;50.894;16.714;2023-02-20T12:41:28;5.50;;;3.60;;
18174;SDS011;9212;50.894;16.714;2023-02-20T12:44:03;5.13;;;4.13;;
18174;SDS011;9212;50.894;16.714;2023-02-20T12:46:48;4.93;;;3.00;;
18174;SDS011;9212;50.894;16.714;2023-02-20T12:49:28;7.53;;;4.30;;
18174;SDS011;9212;50.894;16.714;2023-02-20T12:52:15;3.27;;;2.97;;
18174;SDS011;9212;50.894;16.714;2023-02-20T12:54:56;5.77;;;3.53;;
18174;SDS011;9212;50.894;16.714;2023-02-20T12:57:28;5.70;;;4.07;;
18174;SDS011;9212;50.894;16.714;2023-02-20T13:00:05;4.60;;;3.87;;
18174;SDS011;9212;50.894;16.714;2023-02-20T13:02:42;6.80;;;4.03;;
18174;SDS011;9212;50.894;16.714;2023-02-20T13:05:12;7.40;;;3.47;;
18174;SDS011;9212;50.894;16.714;2023-02-20T13:07:46;6.37;;;4.00;;
18174;SDS011;9212;50.894;16.714;2023-02-20T13:10:19;10.93;;;5.03;;
18174;SDS011;9212;50.894;16.714;2023-02-20T13:12:50;6.10;;;4.20;;
18174;SDS011;9212;50.894;16.714;2023-02-20T13:15:20;7.93;;;4.73;;
18174;SDS011;9212;50.894;16.714;2023-02-20T13:18:00;12.63;;;6.63;;
18174;SDS011;9212;50.894;16.714;2023-02-20T13:20:38;9.67;;;4.60;;
18174;SDS011;9212;50.894;16.714;2023-02-20T13:26:05;4.50;;;2.70;;
18174;SDS011;9212;50.894;16.714;2023-02-20T13:29:11;4.03;;;3.00;;
18174;SDS011;9212;50.894;16.714;2023-02-20T13:31:44;5.70;;;3.70;;
18174;SDS011;9212;50.894;16.714;2023-02-20T13:34:26;5.43;;;3.67;;
18174;SDS011;9212;50.894;16.714;2023-02-20T13:36:56;6.03;;;4.00;;
18174;SDS011;9212;50.894;16.714;2023-02-20T13:42:26;6.83;;;3.37;;
18174;SDS011;9212;50.894;16.714;2023-02-20T13:44:55;4.63;;;2.70;;
18174;SDS011;9212;50.894;16.714;2023-02-20T13:47:33;5.33;;;3.50;;
18174;SDS011;9212;50.894;16.714;2023-02-20T13:52:59;7.43;;;3.93;;
18174;SDS011;9212;50.894;16.714;2023-02-20T13:55:30;5.17;;;3.47;;
18174;SDS011;9212;50.894;16.714;2023-02-20T13:58:02;4.67;;;3.20;;
18174;SDS011;9212;50.894;16.714;2023-02-20T14:00:45;6.20;;;3.77;;
18174;SDS011;9212;50.894;16.714;2023-02-20T14:03:23;8.20;;;3.80;;
18174;SDS011;9212;50.894;16.714;2023-02-20T14:06:02;8.03;;;3.90;;
18174;SDS011;9212;50.894;16.714;2023-02-20T14:08:31;10.40;;;4.00;;
18174;SDS011;9212;50.894;16.714;2023-02-20T14:11:05;5.80;;;3.23;;
18174;SDS011;9212;50.894;16.714;2023-02-20T14:13:35;6.17;;;3.87;;
18174;SDS011;9212;50.894;16.714;2023-02-20T14:16:04;6.40;;;3.77;;
18174;SDS011;9212;50.894;16.714;2023-02-20T14:18:49;12.67;;;4.73;;
18174;SDS011;9212;50.894;16.714;2023-02-20T14:21:17;8.43;;;4.20;;
18174;SDS011;9212;50.894;16.714;2023-02-20T14:23:45;9.27;;;4.20;;
18174;SDS011;9212;50.894;16.714;2023-02-20T14:26:19;5.70;;;3.57;;
18174;SDS011;9212;50.894;16.714;2023-02-20T14:28:50;8.60;;;4.60;;
18174;SDS011;9212;50.894;16.714;2023-02-20T14:31:20;9.30;;;5.17;;
18174;SDS011;9212;50.894;16.714;2023-02-20T14:33:49;9.67;;;4.87;;
18174;SDS011;9212;50.894;16.714;2023-02-20T14:39:18;6.37;;;3.90;;
18174;SDS011;9212;50.894;16.714;2023-02-20T14:41:58;9.60;;;4.63;;
18174;SDS011;9212;50.894;16.714;2023-02-20T14:44:28;9.93;;;4.10;;
18174;SDS011;9212;50.894;16.714;2023-02-20T14:46:57;16.30;;;7.10;;
18174;SDS011;9212;50.894;16.714;2023-02-20T14:49:31;7.80;;;4.40;;
18174;SDS011;9212;50.894;16.714;2023-02-20T14:52:12;5.40;;;3.10;;
18174;SDS011;9212;50.894;16.714;2023-02-20T14:54:41;7.07;;;3.70;;
18174;SDS011;9212;50.894;16.714;2023-02-20T14:57:11;4.60;;;3.07;;
18174;SDS011;9212;50.894;16.714;2023-02-20T14:59:40;4.40;;;2.63;;
18174;SDS011;9212;50.894;16.714;2023-02-20T15:02:13;3.87;;;2.03;;
18174;SDS011;9212;50.894;16.714;2023-02-20T15:04:46;4.23;;;2.73;;
18174;SDS011;9212;50.894;16.714;2023-02-20T15:07:17;2.33;;;2.13;;
18174;SDS011;9212;50.894;16.714;2023-02-20T15:09:46;3.13;;;2.50;;
18174;SDS011;9212;50.894;16.714;2023-02-20T15:12:20;3.10;;;2.07;;
18174;SDS011;9212;50.894;16.714;2023-02-20T15:14:54;5.50;;;2.80;;
18174;SDS011;9212;50.894;16.714;2023-02-20T15:17:23;5.17;;;2.50;;
18174;SDS011;9212;50.894;16.714;2023-02-20T15:19:52;3.33;;;2.40;;
18174;SDS011;9212;50.894;16.714;2023-02-20T15:22:21;4.23;;;2.73;;
18174;SDS011;9212;50.894;16.714;2023-02-20T15:24:50;4.37;;;2.40;;
18174;SDS011;9212;50.894;16.714;2023-02-20T15:27:17;3.73;;;2.40;;
18174;SDS011;9212;50.894;16.714;2023-02-20T15:29:47;4.20;;;3.40;;
18174;SDS011;9212;50.894;16.714;2023-02-20T15:32:35;5.67;;;3.53;;
18174;SDS011;9212;50.894;16.714;2023-02-20T15:35:04;6.00;;;3.93;;
18174;SDS011;9212;50.894;16.714;2023-02-20T15:37:32;3.53;;;2.90;;
18174;SDS011;9212;50.894;16.714;2023-02-20T15:40:05;4.63;;;3.47;;
18174;SDS011;9212;50.894;16.714;2023-02-20T15:42:35;4.63;;;2.53;;